Time;durP1;ratioP1;P1;durP2;ratioP2;P2;SDS_P1;SDS_P2;PMS_P1;PMS_P2;Temp;Humidity;BMP_temperature;BMP_pressure;BME280_temperature;BME280_humidity;BME280_pressure;Samples;Min_cycle;Max_cycle;Signal;HPM_P1;HPM_P2
2021/07/01 00:02:23;;;;;;;0.53;0.40;;;;;;;11.82;100.00;95767.75;5013848;28;20419;-77
2021/07/01 00:04:49;;;;;;;1.05;0.47;;;;;;;11.76;100.00;95776.81;5014019;28;20932;-77
2021/07/01 00:07:14;;;;;;;0.73;0.40;;;;;;;11.72;100.00;95772.75;5031242;28;20939;-77
2021/07/01 00:09:41;;;;;;;0.53;0.30;;;;;;;11.77;100.00;95775.03;5031595;28;20406;-77
2021/07/01 00:12:07;;;;;;;0.52;0.28;;;;;;;11.74;100.00;95772.63;5013735;28;20923;-77
2021/07/01 00:14:33;;;;;;;0.73;0.38;;;;;;;11.74;100.00;95773.47;5013877;28;20812;-77
2021/07/01 00:16:58;;;;;;;1.23;0.40;;;;;;;11.71;100.00;95775.44;5030011;28;20427;-77
2021/07/01 00:19:24;;;;;;;0.60;0.23;;;;;;;11.76;100.00;95765.59;5013701;28;21010;-77
2021/07/01 00:21:50;;;;;;;0.88;0.40;;;;;;;11.79;100.00;95773.16;5029919;28;20449;-77
2021/07/01 00:24:15;;;;;;;0.50;0.40;;;;;;;11.81;100.00;95776.47;5013485;28;20415;-77
2021/07/01 00:26:42;;;;;;;3.30;0.50;;;;;;;11.73;100.00;95773.59;5029714;28;20434;-77
2021/07/01 00:29:07;;;;;;;0.20;0.20;;;;;;;11.80;100.00;95773.06;5031567;28;20892;-77
2021/07/01 00:31:33;;;;;;;1.00;0.40;;;;;;;11.82;100.00;95771.19;5031282;28;20431;-77
2021/07/01 00:33:59;;;;;;;0.82;0.30;;;;;;;11.91;100.00;95769.78;5029786;28;20517;-77
2021/07/01 00:36:24;;;;;;;0.68;0.40;;;;;;;12.02;100.00;95769.88;5030837;28;20462;-77
2021/07/01 00:38:50;;;;;;;1.00;0.40;;;;;;;11.87;100.00;95768.31;5030995;28;20422;-77
2021/07/01 00:41:16;;;;;;;1.60;0.40;;;;;;;11.86;100.00;95774.44;5031096;28;20773;-77
2021/07/01 00:43:42;;;;;;;0.50;0.13;;;;;;;12.03;100.00;95774.13;5029633;28;20427;-77
2021/07/01 00:46:09;;;;;;;1.80;0.40;;;;;;;11.96;100.00;95772.06;5030701;28;20442;-77
2021/07/01 00:48:34;;;;;;;0.28;0.20;;;;;;;11.90;100.00;95773.28;5030985;28;20453;-77
2021/07/01 00:51:01;;;;;;;0.30;0.30;;;;;;;11.99;100.00;95774.44;5013064;28;20879;-77
2021/07/01 00:53:27;;;;;;;1.98;0.30;;;;;;;12.06;100.00;95775.69;5030793;28;20419;-77
2021/07/01 00:55:52;;;;;;;0.15;0.15;;;;;;;12.03;100.00;95771.53;5029369;28;20944;-77
2021/07/01 00:58:18;;;;;;;0.85;0.25;;;;;;;12.04;100.00;95774.94;5030737;28;20423;-77
2021/07/01 01:03:30;;;;;;;0.85;0.20;;;;;;;11.89;100.00;95768.22;5030619;28;20509;-77
2021/07/01 01:05:56;;;;;;;1.88;0.35;;;;;;;11.83;100.00;95761.66;5030514;28;20410;-77
2021/07/01 01:08:22;;;;;;;1.73;0.30;;;;;;;11.90;100.00;95765.50;5031028;28;20418;-77
2021/07/01 01:10:47;;;;;;;0.40;0.20;;;;;;;11.99;100.00;95766.66;5030744;28;20773;-77
2021/07/01 01:13:23;;;;;;;0.20;0.20;;;;;;;12.01;100.00;95772.56;5030601;28;20419;-77
2021/07/01 01:15:50;;;;;;;0.35;0.20;;;;;;;12.11;100.00;95774.41;5030348;28;20820;-77
2021/07/01 01:18:16;;;;;;;1.52;0.20;;;;;;;12.15;100.00;95769.84;5029291;28;20430;-77
2021/07/01 01:20:41;;;;;;;0.15;0.15;;;;;;;12.09;100.00;95772.88;5030644;28;20419;-77
2021/07/01 01:23:08;;;;;;;0.70;0.20;;;;;;;12.08;100.00;95776.41;5043842;23;20436;-77
2021/07/01 01:25:33;;;;;;;1.77;0.30;;;;;;;12.07;100.00;95772.16;5010587;28;20412;-77
2021/07/01 01:27:58;;;;;;;0.57;0.30;;;;;;;12.03;100.00;95770.69;5009662;28;20443;-77
2021/07/01 01:30:24;;;;;;;1.17;0.20;;;;;;;11.95;100.00;95773.00;5010732;28;20948;-77
2021/07/01 01:32:52;;;;;;;0.70;0.28;;;;;;;11.93;100.00;95774.84;5010867;28;20493;-77
2021/07/01 01:35:18;;;;;;;0.60;0.30;;;;;;;12.02;100.00;95772.47;4989573;28;20425;-77
2021/07/01 01:37:43;;;;;;;1.40;0.30;;;;;;;12.03;100.00;95763.75;4989914;28;20414;-77
2021/07/01 01:40:10;;;;;;;0.90;0.30;;;;;;;11.95;100.00;95775.59;4991077;28;20513;-77
2021/07/01 01:42:36;;;;;;;1.20;0.20;;;;;;;12.04;100.00;95773.19;4991211;28;20426;-77
2021/07/01 01:45:01;;;;;;;0.60;0.30;;;;;;;11.93;100.00;95772.25;4989641;28;20762;-77
2021/07/01 01:47:27;;;;;;;1.27;0.27;;;;;;;11.89;100.00;95776.00;4991092;28;20484;-77
2021/07/01 01:49:52;;;;;;;0.40;0.30;;;;;;;11.82;100.00;95770.34;4991117;28;20415;-78
2021/07/01 01:52:18;;;;;;;0.20;0.10;;;;;;;11.86;100.00;95774.44;4989769;28;20803;-77
2021/07/01 01:54:43;;;;;;;0.40;0.20;;;;;;;11.85;100.00;95770.19;4990617;28;20437;-77
2021/07/01 01:57:10;;;;;;;1.40;0.40;;;;;;;11.79;100.00;95774.00;4994539;28;20468;-77
2021/07/01 01:59:36;;;;;;;4.00;0.30;;;;;;;11.88;100.00;95772.56;4994964;28;20465;-77
2021/07/01 02:02:02;;;;;;;0.87;0.20;;;;;;;11.81;100.00;95774.72;4993403;28;21049;-77
2021/07/01 02:04:27;;;;;;;2.30;0.40;;;;;;;11.77;100.00;95770.66;4993524;28;20426;-77
2021/07/01 02:06:54;;;;;;;2.70;0.20;;;;;;;11.75;100.00;95775.13;4994360;28;20896;-77
2021/07/01 02:09:20;;;;;;;0.32;0.20;;;;;;;11.81;100.00;95774.72;4994564;28;20465;-77
2021/07/01 02:11:46;;;;;;;0.47;0.20;;;;;;;11.98;100.00;95767.59;5009595;28;20422;-77
2021/07/01 02:14:12;;;;;;;0.40;0.20;;;;;;;12.04;100.00;95772.34;4994310;28;20789;-77
2021/07/01 02:16:38;;;;;;;0.35;0.10;;;;;;;12.01;100.00;95769.97;4992908;28;20527;-78
2021/07/01 02:19:03;;;;;;;1.20;0.30;;;;;;;11.97;100.00;95778.91;4994326;28;20935;-77
2021/07/01 02:21:29;;;;;;;0.30;0.20;;;;;;;11.93;100.00;95772.25;4994343;28;20418;-77
2021/07/01 02:23:54;;;;;;;0.67;0.20;;;;;;;12.02;100.00;95769.88;4994084;28;20482;-77
2021/07/01 02:26:19;;;;;;;1.17;0.30;;;;;;;11.86;100.00;95772.69;4992726;28;20469;-77
2021/07/01 02:28:45;;;;;;;0.40;0.20;;;;;;;11.95;100.00;95779.00;4994039;28;20473;-77
2021/07/01 02:31:12;;;;;;;1.42;0.30;;;;;;;11.85;100.00;95772.78;4994177;28;20410;-77
2021/07/01 02:33:37;;;;;;;0.77;0.30;;;;;;;11.75;100.00;95780.31;4994052;28;20918;-77
2021/07/01 02:36:03;;;;;;;0.22;0.22;;;;;;;11.76;100.00;95782.00;4992501;28;20423;-77
2021/07/01 02:38:29;;;;;;;0.73;0.30;;;;;;;11.68;100.00;95779.09;4992681;28;20824;-77
2021/07/01 02:40:54;;;;;;;1.93;0.30;;;;;;;11.66;100.00;95780.13;4992734;28;20427;-77
2021/07/01 02:43:20;;;;;;;0.70;0.20;;;;;;;11.71;100.00;95784.03;4992506;28;20795;-77
2021/07/01 02:45:45;;;;;;;1.65;0.35;;;;;;;11.71;100.00;95788.41;4993701;28;20415;-77
2021/07/01 02:48:12;;;;;;;0.60;0.20;;;;;;;11.71;100.00;95786.63;4992549;28;20754;-78
2021/07/01 02:50:37;;;;;;;1.23;0.32;;;;;;;11.70;100.00;95782.38;4993750;28;20437;-77
2021/07/01 02:53:03;;;;;;;0.40;0.30;;;;;;;11.70;100.00;95786.75;4993583;28;20981;-77
2021/07/01 02:55:28;;;;;;;1.60;0.30;;;;;;;11.70;100.00;95790.19;4993451;28;20414;-77
2021/07/01 02:57:54;;;;;;;1.10;0.37;;;;;;;11.74;100.00;95793.41;4993882;28;20426;-77
2021/07/01 03:00:19;;;;;;;1.10;0.37;;;;;;;11.80;100.00;95790.41;4992282;28;20506;-77
2021/07/01 03:02:45;;;;;;;0.57;0.20;;;;;;;11.79;100.00;95789.56;4992300;28;20916;-77
2021/07/01 03:05:11;;;;;;;1.70;0.32;;;;;;;11.71;100.00;95804.81;4992718;28;20407;-77
2021/07/01 03:07:37;;;;;;;0.77;0.32;;;;;;;11.86;100.00;95793.44;4992151;28;20424;-77
2021/07/01 03:10:04;;;;;;;0.32;0.20;;;;;;;11.98;100.00;95794.38;4993413;28;20418;-77
2021/07/01 03:12:29;;;;;;;0.73;0.20;;;;;;;12.00;100.00;95789.91;4993202;28;20430;-77
2021/07/01 03:14:54;;;;;;;0.90;0.22;;;;;;;11.91;100.00;95792.31;4993274;28;20407;-77
2021/07/01 03:17:20;;;;;;;0.70;0.33;;;;;;;12.00;100.00;95791.66;4993082;28;20438;-77
2021/07/01 03:19:45;;;;;;;0.83;0.20;;;;;;;11.91;100.00;95787.13;4993160;28;20430;-77
2021/07/01 03:22:12;;;;;;;1.23;0.37;;;;;;;11.98;100.00;95781.41;4991918;28;20437;-77
2021/07/01 03:24:38;;;;;;;0.47;0.33;;;;;;;12.06;100.00;95784.31;4992939;28;20465;-77
2021/07/01 03:27:04;;;;;;;1.00;0.30;;;;;;;11.92;100.00;95784.41;4991560;28;20450;-77
2021/07/01 03:29:30;;;;;;;1.35;0.30;;;;;;;11.92;100.00;95786.19;4993086;28;20423;-77
2021/07/01 03:31:55;;;;;;;0.45;0.30;;;;;;;11.88;100.00;95788.16;4991835;28;20488;-77
2021/07/01 03:34:21;;;;;;;0.20;0.20;;;;;;;11.94;100.00;95792.94;4992798;28;20924;-77
2021/07/01 03:36:47;;;;;;;0.57;0.30;;;;;;;11.97;100.00;95784.91;4991350;28;20427;-77
2021/07/01 03:39:14;;;;;;;0.90;0.20;;;;;;;12.06;100.00;95788.66;4992709;28;20434;-77
2021/07/01 03:41:40;;;;;;;0.45;0.30;;;;;;;12.04;100.00;95791.34;4992823;28;20414;-77
2021/07/01 03:44:07;;;;;;;0.85;0.35;;;;;;;11.90;100.00;95788.03;4992713;28;20424;-77
2021/07/01 03:46:33;;;;;;;3.05;0.50;;;;;;;11.79;100.00;95793.91;4992529;28;20427;-76
2021/07/01 03:48:58;;;;;;;1.00;0.30;;;;;;;11.73;100.00;95791.75;4991407;28;20421;-76
2021/07/01 03:51:24;;;;;;;0.90;0.30;;;;;;;11.77;100.00;95791.44;4992531;28;20501;-76
2021/07/01 03:53:49;;;;;;;1.20;0.37;;;;;;;11.77;100.00;95795.78;4992550;28;20414;-75
2021/07/01 03:56:16;;;;;;;1.97;0.30;;;;;;;11.76;100.00;95787.19;4992251;28;20461;-76
2021/07/01 03:58:41;;;;;;;1.50;0.35;;;;;;;11.71;100.00;95786.63;4991018;28;20432;-76
2021/07/01 04:01:07;;;;;;;3.20;0.47;;;;;;;11.69;100.00;95787.69;4991172;28;20426;-76
2021/07/01 04:03:33;;;;;;;0.10;0.10;;;;;;;11.66;100.00;95790.50;4992411;28;20441;-76
2021/07/01 04:05:58;;;;;;;0.40;0.20;;;;;;;11.68;100.00;95791.19;4992120;28;20779;-76
2021/07/01 04:08:23;;;;;;;0.47;0.35;;;;;;;11.61;100.00;95790.81;4992289;28;20469;-76
2021/07/01 04:10:49;;;;;;;1.80;0.43;;;;;;;11.54;100.00;95789.53;4992173;28;20430;-76
2021/07/01 04:13:15;;;;;;;3.10;0.40;;;;;;;11.60;100.00;95795.13;4992094;28;20780;-76
2021/07/01 04:15:41;;;;;;;0.40;0.30;;;;;;;11.71;100.00;95793.59;4991924;28;20422;-76
2021/07/01 04:18:08;;;;;;;0.60;0.30;;;;;;;11.73;100.00;95799.53;4990132;28;20453;-76
2021/07/01 04:20:33;;;;;;;1.00;0.40;;;;;;;11.67;100.00;95800.75;4990972;28;20457;-76
2021/07/01 04:22:59;;;;;;;0.77;0.30;;;;;;;11.68;100.00;95809.34;4991892;28;20410;-76
2021/07/01 04:25:24;;;;;;;0.57;0.37;;;;;;;11.74;100.00;95806.38;4990468;28;20816;-76
2021/07/01 04:27:49;;;;;;;0.30;0.30;;;;;;;11.76;100.00;95801.91;4990636;28;20434;-76
2021/07/01 04:30:17;;;;;;;0.70;0.20;;;;;;;11.80;100.00;95805.97;4990586;28;20486;-76
2021/07/01 04:32:43;;;;;;;0.80;0.30;;;;;;;11.68;100.00;95814.56;4990628;28;20426;-76
2021/07/01 04:35:09;;;;;;;0.67;0.37;;;;;;;11.81;100.00;95807.63;4991543;28;20418;-76
2021/07/01 04:37:34;;;;;;;0.30;0.30;;;;;;;11.94;100.00;95803.31;4991833;28;20426;-76
2021/07/01 04:40:00;;;;;;;0.30;0.27;;;;;;;11.93;100.00;95804.22;4990360;28;20427;-76
2021/07/01 04:42:26;;;;;;;1.13;0.30;;;;;;;11.91;100.00;95800.09;4991804;28;20418;-77
2021/07/01 04:44:51;;;;;;;0.35;0.30;;;;;;;12.01;100.00;95809.72;4991696;28;20430;-77
2021/07/01 04:47:18;;;;;;;0.50;0.30;;;;;;;12.02;100.00;95810.59;4991487;28;20916;-76
2021/07/01 04:49:44;;;;;;;0.60;0.40;;;;;;;11.98;100.00;95814.31;4990334;28;20419;-77
2021/07/01 04:52:09;;;;;;;1.10;0.40;;;;;;;11.99;100.00;95811.59;4991566;28;20418;-76
2021/07/01 04:54:34;;;;;;;0.50;0.40;;;;;;;12.08;100.00;95810.97;4991472;28;20477;-76
2021/07/01 04:57:00;;;;;;;0.60;0.30;;;;;;;12.15;100.00;95811.38;4991397;28;20902;-76
2021/07/01 04:59:25;;;;;;;1.77;0.40;;;;;;;12.14;100.00;95809.72;4991449;28;20484;-76
2021/07/01 05:01:51;;;;;;;1.10;0.60;;;;;;;12.07;100.00;95813.69;4991434;28;20420;-75
2021/07/01 05:04:17;;;;;;;0.90;0.50;;;;;;;12.15;100.00;95810.56;4991329;28;20422;-75
2021/07/01 05:06:43;;;;;;;0.65;0.50;;;;;;;12.08;100.00;95807.53;4991230;28;20880;-76
2021/07/01 05:09:09;;;;;;;1.60;0.60;;;;;;;12.04;100.00;95813.88;4990068;28;20415;-76
2021/07/01 05:11:36;;;;;;;0.50;0.50;;;;;;;12.05;100.00;95815.53;5006424;28;20422;-76
2021/07/01 05:14:02;;;;;;;0.60;0.40;;;;;;;12.04;100.00;95817.31;4991280;28;20438;-76
2021/07/01 05:16:28;;;;;;;0.90;0.60;;;;;;;12.08;100.00;95821.34;4991136;28;20509;-76
2021/07/01 05:18:54;;;;;;;1.60;0.47;;;;;;;12.08;100.00;95817.94;4991287;28;20434;-75
2021/07/01 05:21:20;;;;;;;2.87;0.53;;;;;;;12.02;100.00;95816.59;4990056;28;20433;-75
2021/07/01 05:23:46;;;;;;;0.90;0.60;;;;;;;11.99;100.00;95816.81;4990946;28;20422;-76
2021/07/01 05:26:11;;;;;;;1.03;0.50;;;;;;;12.00;100.00;95815.03;4989783;28;20493;-76
2021/07/01 05:28:37;;;;;;;0.50;0.40;;;;;;;11.96;100.00;95823.97;4990775;28;20434;-76
2021/07/01 05:31:02;;;;;;;0.60;0.38;;;;;;;11.98;100.00;95815.16;4995271;28;20418;-75
2021/07/01 05:33:27;;;;;;;0.87;0.40;;;;;;;12.01;100.00;95814.91;4993807;28;20488;-75
2021/07/01 05:35:53;;;;;;;2.80;0.70;;;;;;;12.02;100.00;95806.22;4994934;28;20418;-75
2021/07/01 05:38:20;;;;;;;0.40;0.40;;;;;;;12.03;100.00;95815.66;4994986;28;20491;-76
2021/07/01 05:40:45;;;;;;;0.90;0.60;;;;;;;12.11;100.00;95815.13;4995018;28;20414;-76
2021/07/01 05:43:10;;;;;;;2.13;0.60;;;;;;;12.09;100.00;95822.22;4993678;28;20962;-76
2021/07/01 05:45:36;;;;;;;2.63;0.50;;;;;;;12.08;100.00;95825.72;4994680;28;20414;-76
2021/07/01 05:48:02;;;;;;;0.67;0.50;;;;;;;12.03;100.00;95828.63;4994970;28;20472;-76
2021/07/01 05:50:28;;;;;;;0.50;0.30;;;;;;;12.07;100.00;95818.88;4993652;28;20509;-75
2021/07/01 05:53:01;;;;;;;0.98;0.60;;;;;;;12.09;100.00;95823.03;5009535;28;20510;-75
2021/07/01 05:55:27;;;;;;;3.10;0.50;;;;;;;12.18;100.00;95833.72;4993377;28;20998;-75
2021/07/01 05:57:53;;;;;;;0.60;0.50;;;;;;;12.15;100.00;95821.78;4994832;28;20497;-75
2021/07/01 06:00:18;;;;;;;1.00;0.77;;;;;;;12.03;100.00;95831.22;4993242;28;20421;-75
2021/07/01 06:02:45;;;;;;;4.40;1.30;;;;;;;12.01;100.00;95827.88;5009621;28;20422;-75
2021/07/01 06:05:10;;;;;;;1.83;1.00;;;;;;;12.10;100.00;95826.47;4994265;28;20415;-75
2021/07/01 06:07:36;;;;;;;1.90;1.30;;;;;;;12.17;100.00;95837.25;4994457;28;20509;-75
2021/07/01 06:10:05;;;;;;;3.00;1.10;;;;;;;12.32;100.00;95834.44;4994498;28;20417;-76
2021/07/01 06:12:33;;;;;;;1.65;0.98;;;;;;;12.40;100.00;95841.72;4994482;28;20450;-75
2021/07/01 06:15:00;;;;;;;1.13;1.02;;;;;;;12.42;100.00;95836.41;4994199;28;20437;-75
2021/07/01 06:17:27;;;;;;;2.00;1.15;;;;;;;12.58;100.00;95845.63;4994137;28;20452;-75
2021/07/01 06:19:53;;;;;;;2.80;1.50;;;;;;;12.67;100.00;95833.75;5009289;28;20462;-75
2021/07/01 06:22:21;;;;;;;1.52;1.17;;;;;;;12.74;100.00;95839.34;4994124;28;20908;-75
2021/07/01 06:24:49;;;;;;;1.20;1.10;;;;;;;12.80;100.00;95838.94;4994013;28;20851;-75
2021/07/01 06:27:21;;;;;;;2.03;1.30;;;;;;;12.76;100.00;95847.88;4993886;28;20480;-76
2021/07/01 06:29:48;;;;;;;1.50;1.40;;;;;;;12.68;100.00;95851.03;4992839;28;20788;-76
2021/07/01 06:32:14;;;;;;;1.10;1.00;;;;;;;12.71;100.00;95844.75;4993996;28;20417;-76
2021/07/01 06:34:41;;;;;;;2.90;1.60;;;;;;;12.68;100.00;95848.44;4993876;28;20411;-76
2021/07/01 06:37:07;;;;;;;1.95;1.30;;;;;;;12.75;100.00;95860.03;4993771;28;20538;-76
2021/07/01 06:39:36;;;;;;;1.75;1.55;;;;;;;12.80;100.00;95850.16;4993802;28;20453;-76
2021/07/01 06:42:03;;;;;;;2.40;1.52;;;;;;;12.80;100.00;95859.72;4993163;28;20414;-76
2021/07/01 06:44:29;;;;;;;1.42;1.20;;;;;;;12.72;100.00;95855.06;4992456;28;20430;-76
2021/07/01 06:46:56;;;;;;;16.90;1.63;;;;;;;12.69;100.00;95852.69;4993536;28;20480;-76
2021/07/01 06:49:24;;;;;;;2.03;1.60;;;;;;;12.78;100.00;95843.41;4993718;28;20526;-76
2021/07/01 06:51:52;;;;;;;2.20;1.40;;;;;;;12.78;100.00;95856.41;4993586;28;20469;-76
2021/07/01 06:54:18;;;;;;;2.65;1.67;;;;;;;12.84;100.00;95848.19;4993597;28;20916;-76
2021/07/01 06:56:44;;;;;;;1.83;1.58;;;;;;;13.04;100.00;95852.78;4992135;28;20430;-76
2021/07/01 06:59:11;;;;;;;2.97;1.58;;;;;;;13.11;100.00;95853.19;4993480;28;20934;-76
2021/07/01 07:01:37;;;;;;;2.47;1.63;;;;;;;13.26;100.00;95853.88;4992077;28;20916;-76
2021/07/01 07:04:04;;;;;;;2.63;1.60;;;;;;;13.32;100.00;95854.28;4993429;28;20431;-76
2021/07/01 07:06:30;;;;;;;1.50;1.40;;;;;;;13.40;100.00;95851.13;4993281;28;20442;-76
2021/07/01 07:08:56;;;;;;;2.22;1.60;;;;;;;13.45;100.00;95854.19;4993460;28;20479;-76
2021/07/01 07:11:21;;;;;;;2.00;1.50;;;;;;;13.44;100.00;95854.31;4990027;28;20525;-76
2021/07/01 07:13:46;;;;;;;2.00;1.50;;;;;;;13.36;100.00;95851.47;4992297;28;20426;-76
2021/07/01 07:16:12;;;;;;;1.83;1.63;;;;;;;13.42;100.00;95864.84;4992236;28;20414;-76
2021/07/01 07:18:41;;;;;;;2.45;1.77;;;;;;;13.37;100.00;95860.91;4976380;28;20929;-76
2021/07/01 07:21:14;;;;;;;3.53;1.70;;;;;;;13.47;100.00;95860.13;4987503;28;20417;-76
2021/07/01 07:23:40;;;;;;;1.83;1.40;;;;;;;13.45;100.00;95864.59;5065714;22;20404;-76
2021/07/01 07:26:07;;;;;;;1.67;1.42;;;;;;;13.48;100.00;95861.78;5070406;28;20431;-76
2021/07/01 07:28:37;;;;;;;2.17;1.77;;;;;;;13.61;100.00;95869.53;5068090;28;20412;-76
2021/07/01 07:31:04;;;;;;;1.70;1.42;;;;;;;13.53;100.00;95867.50;5051897;28;20974;-76
2021/07/01 07:33:29;;;;;;;1.90;1.70;;;;;;;13.54;100.00;95868.34;5050434;28;20428;-76
2021/07/01 07:35:55;;;;;;;1.87;1.60;;;;;;;13.56;100.00;95869.84;5050299;28;20865;-76
2021/07/01 07:38:24;;;;;;;3.47;1.80;;;;;;;13.64;100.00;95861.50;5040661;28;20426;-76
2021/07/01 07:40:52;;;;;;;1.95;1.70;;;;;;;13.53;100.00;95864.91;5038245;28;20457;-76
2021/07/01 07:43:19;;;;;;;3.80;1.80;;;;;;;13.48;100.00;95866.16;5050033;28;20431;-77
2021/07/01 07:45:46;;;;;;;2.42;1.77;;;;;;;13.41;100.00;95875.34;5051097;28;20420;-76
2021/07/01 07:48:11;;;;;;;1.60;1.40;;;;;;;13.40;100.00;95874.53;5051471;28;20432;-77
2021/07/01 07:50:39;;;;;;;2.70;1.60;;;;;;;13.49;100.00;95868.63;5050190;28;20421;-73
2021/07/01 07:53:07;;;;;;;2.45;1.70;;;;;;;13.49;100.00;95871.25;5042081;28;20405;-77
2021/07/01 07:55:35;;;;;;;3.60;2.10;;;;;;;13.29;100.00;95874.47;5048936;28;20792;-81
2021/07/01 07:58:06;;;;;;;2.42;2.05;;;;;;;13.34;100.00;95880.16;5033609;28;20427;-81
2021/07/01 08:00:33;;;;;;;2.67;2.00;;;;;;;13.29;100.00;95862.28;5037689;28;20499;-80
2021/07/01 08:03:01;;;;;;;2.20;2.00;;;;;;;13.36;100.00;95867.88;5043799;28;20521;-80
2021/07/01 08:05:29;;;;;;;3.10;2.30;;;;;;;13.35;100.00;95860.19;5037737;28;20420;-80
2021/07/01 08:07:55;;;;;;;2.53;2.33;;;;;;;13.31;100.00;95870.84;5054069;28;20913;-79
2021/07/01 08:10:27;;;;;;;2.60;2.22;;;;;;;13.17;100.00;95877.94;5052801;28;20421;-80
2021/07/01 08:13:01;;;;;;;3.90;2.47;;;;;;;13.10;100.00;95874.94;5055602;28;20409;-78
2021/07/01 08:15:28;;;;;;;2.95;2.33;;;;;;;13.29;100.00;95864.06;5052026;28;20421;-78
2021/07/01 08:17:54;;;;;;;3.00;2.70;;;;;;;13.30;100.00;95860.53;5053919;28;20503;-81
2021/07/01 08:20:23;;;;;;;2.95;2.33;;;;;;;13.48;100.00;95866.16;5052854;28;20421;-78
2021/07/01 08:22:50;;;;;;;3.88;2.53;;;;;;;13.56;100.00;95864.66;5051215;28;20429;-78
2021/07/01 08:25:16;;;;;;;2.40;2.20;;;;;;;13.74;100.00;95870.28;5051329;28;21078;-80
2021/07/01 08:27:44;;;;;;;2.75;2.25;;;;;;;13.59;100.00;95865.38;5050100;28;20490;-79
2021/07/01 08:30:12;;;;;;;3.53;2.55;;;;;;;13.72;100.00;95872.19;5052989;28;20500;-80
2021/07/01 08:32:39;;;;;;;5.10;2.55;;;;;;;13.75;100.00;95871.94;5052444;28;20413;-80
2021/07/01 08:35:05;;;;;;;4.00;2.40;;;;;;;13.68;100.00;95864.69;5051075;28;20949;-77
2021/07/01 08:37:32;;;;;;;3.80;2.33;;;;;;;13.69;100.00;95864.59;5051385;28;20581;-77
2021/07/01 08:40:00;;;;;;;5.30;2.20;;;;;;;13.60;100.00;95864.44;5050911;28;20440;-77
2021/07/01 08:42:32;;;;;;;3.90;2.20;;;;;;;13.56;100.00;95863.81;5046578;28;20422;-77
2021/07/01 08:45:02;;;;;;;2.53;2.30;;;;;;;13.59;100.00;95873.19;5049204;28;20823;-79
2021/07/01 08:47:31;;;;;;;2.92;2.35;;;;;;;13.69;100.00;95871.59;5050547;28;20496;-77
2021/07/01 08:49:58;;;;;;;3.83;2.35;;;;;;;13.86;100.00;95875.53;5050309;28;20906;-77
2021/07/01 08:52:26;;;;;;;2.78;2.38;;;;;;;14.01;100.00;95879.59;5050045;28;20416;-76
2021/07/01 08:54:57;;;;;;;2.80;1.98;;;;;;;13.82;96.31;95863.69;5050124;28;20794;-77
2021/07/01 08:57:27;;;;;;;2.15;1.95;;;;;;;13.89;100.00;95870.09;5048926;28;20417;-76
2021/07/01 08:59:59;;;;;;;2.17;1.97;;;;;;;14.02;100.00;95876.06;5049955;28;20826;-76
2021/07/01 09:02:35;;;;;;;3.03;2.47;;;;;;;13.84;100.00;95883.47;5050175;28;20864;-76
2021/07/01 09:05:04;;;;;;;2.47;1.73;;;;;;;13.51;96.80;95884.16;5047801;28;20425;-76
2021/07/01 09:07:35;;;;;;;2.97;1.58;;;;;;;13.31;99.48;95880.38;5032172;28;20472;-76
2021/07/01 09:10:04;;;;;;;2.55;1.90;;;;;;;13.34;99.57;95900.16;5049072;28;20456;-76
2021/07/01 09:12:30;;;;;;;1.70;1.60;;;;;;;13.56;100.00;95892.44;5045522;28;20419;-76
2021/07/01 09:14:58;;;;;;;1.48;1.38;;;;;;;13.58;98.40;95898.38;5047661;28;20444;-76
2021/07/01 09:17:25;;;;;;;1.95;1.45;;;;;;;13.55;99.09;95893.41;5048620;28;20425;-77
2021/07/01 09:19:54;;;;;;;2.22;1.50;;;;;;;13.71;98.72;95899.13;5048674;28;20427;-76
2021/07/01 09:22:21;;;;;;;1.90;1.30;;;;;;;13.81;99.13;95891.50;5050038;28;20452;-76
2021/07/01 09:24:50;;;;;;;2.30;1.98;;;;;;;13.79;100.00;95894.22;5048865;28;20989;-76
2021/07/01 09:27:17;;;;;;;2.47;1.33;;;;;;;13.85;99.61;95897.31;5049069;28;20429;-77
2021/07/01 09:29:44;;;;;;;1.90;1.60;;;;;;;13.75;98.37;95891.94;5064983;28;20405;-77
2021/07/01 09:32:11;;;;;;;3.05;1.30;;;;;;;13.85;97.26;95892.09;5070643;28;20405;-76
2021/07/01 09:34:38;;;;;;;1.50;1.40;;;;;;;13.73;96.82;95891.22;5068771;28;20420;-76
2021/07/01 09:37:05;;;;;;;1.80;1.40;;;;;;;13.67;98.03;95894.28;5062102;28;20504;-77
2021/07/01 09:39:32;;;;;;;2.55;1.38;;;;;;;13.75;99.29;95889.34;5055613;28;20425;-77
2021/07/01 09:42:00;;;;;;;2.58;1.50;;;;;;;13.92;99.50;95881.13;5054118;28;20419;-77
2021/07/01 09:44:29;;;;;;;1.70;1.07;;;;;;;14.04;98.01;95881.97;5051897;28;20465;-81
2021/07/01 09:46:56;;;;;;;1.35;1.25;;;;;;;14.07;95.29;95884.34;5052614;28;20991;-78
2021/07/01 09:49:29;;;;;;;1.23;0.98;;;;;;;14.02;95.44;95884.69;5052652;28;20444;-78
2021/07/01 09:51:56;;;;;;;1.05;0.93;;;;;;;14.24;92.30;95891.75;5053224;28;20416;-77
2021/07/01 09:54:24;;;;;;;1.33;0.90;;;;;;;14.14;90.53;95880.34;5052383;28;20980;-78
2021/07/01 09:56:54;;;;;;;1.58;0.90;;;;;;;14.17;92.28;95889.72;5052946;28;20806;-78
2021/07/01 09:59:22;;;;;;;1.60;1.02;;;;;;;14.32;93.12;95882.53;5051801;28;20417;-78
2021/07/01 10:01:48;;;;;;;2.20;0.90;;;;;;;14.36;90.13;95883.94;5052477;28;20830;-78
2021/07/01 10:04:13;;;;;;;1.65;1.20;;;;;;;14.39;92.26;95889.75;5052491;28;20417;-78
2021/07/01 10:06:39;;;;;;;1.70;1.00;;;;;;;14.36;91.89;95876.94;5052470;28;20843;-77
2021/07/01 10:09:07;;;;;;;1.13;0.80;;;;;;;14.18;91.38;95881.78;5053193;28;20436;-77
2021/07/01 10:11:37;;;;;;;1.60;1.00;;;;;;;14.08;90.56;95883.41;5050503;28;20449;-77
2021/07/01 10:14:05;;;;;;;0.82;0.60;;;;;;;14.03;90.47;95890.75;5052292;28;20492;-76
2021/07/01 10:16:32;;;;;;;0.63;0.60;;;;;;;13.86;90.87;95897.19;5052442;28;20787;-77
2021/07/01 10:18:58;;;;;;;0.85;0.80;;;;;;;13.84;91.92;95893.88;5054383;28;20425;-77
2021/07/01 10:21:26;;;;;;;0.55;0.40;;;;;;;13.83;92.06;95897.44;5053239;28;20444;-77
2021/07/01 10:24:06;;;;;;;0.68;0.63;;;;;;;13.50;94.31;95885.94;5054764;28;20500;-77
2021/07/01 10:26:39;;;;;;;2.47;0.60;;;;;;;13.27;96.34;95903.22;5054884;28;20417;-77
2021/07/01 10:29:05;;;;;;;1.08;0.80;;;;;;;13.13;97.28;95897.28;5053198;28;20483;-77
2021/07/01 10:31:46;;;;;;;1.25;0.80;;;;;;;13.25;98.17;95897.28;5053523;28;20445;-77
2021/07/01 10:34:14;;;;;;;0.90;0.60;;;;;;;13.24;97.94;95900.00;5053359;28;20429;-77
2021/07/01 10:36:39;;;;;;;0.65;0.60;;;;;;;13.36;98.58;95901.72;5054000;28;20496;-77
2021/07/01 10:39:05;;;;;;;1.40;0.70;;;;;;;13.18;97.59;95905.59;5054816;28;20508;-77
2021/07/01 10:41:33;;;;;;;1.00;0.90;;;;;;;13.26;99.82;95916.31;5054191;28;20421;-78
2021/07/01 10:44:01;;;;;;;1.23;1.00;;;;;;;13.09;100.00;95920.09;5049960;28;20866;-77
2021/07/01 10:46:37;;;;;;;3.20;1.30;;;;;;;12.81;100.00;95915.97;5034737;28;20411;-78
2021/07/01 10:49:03;;;;;;;2.58;1.50;;;;;;;12.77;100.00;95911.91;5033193;28;20511;-77
2021/07/01 10:51:29;;;;;;;1.75;1.30;;;;;;;12.76;100.00;95916.28;5044294;28;20512;-77
2021/07/01 10:54:09;;;;;;;2.33;1.23;;;;;;;12.78;100.00;95916.16;5054825;28;20421;-77
2021/07/01 10:56:41;;;;;;;3.58;1.67;;;;;;;12.80;100.00;95914.31;5052937;28;20421;-77
2021/07/01 10:59:10;;;;;;;1.45;1.30;;;;;;;12.88;100.00;95916.38;5042284;28;20426;-77
2021/07/01 11:01:37;;;;;;;2.03;1.63;;;;;;;13.19;100.00;95917.66;5033706;28;20431;-77
2021/07/01 11:04:05;;;;;;;2.75;1.63;;;;;;;13.21;99.49;95915.78;5034514;28;20417;-78
2021/07/01 11:06:31;;;;;;;1.83;1.50;;;;;;;13.28;100.00;95919.63;5046678;28;20495;-78
2021/07/01 11:08:57;;;;;;;1.77;1.67;;;;;;;13.50;97.50;95927.56;5032857;28;20499;-77
2021/07/01 11:11:24;;;;;;;2.75;2.05;;;;;;;13.87;98.00;95924.03;5034261;28;20435;-77
2021/07/01 11:13:54;;;;;;;2.65;1.65;;;;;;;14.03;95.26;95919.38;5039730;28;20419;-77
2021/07/01 11:16:31;;;;;;;2.72;2.00;;;;;;;13.96;96.36;95925.97;5049808;28;20765;-77
2021/07/01 11:18:57;;;;;;;3.20;2.70;;;;;;;13.85;93.95;95925.94;5049419;28;20415;-78
2021/07/01 11:21:22;;;;;;;3.37;2.67;;;;;;;13.62;95.24;95925.84;5049690;28;20787;-77
2021/07/01 11:23:51;;;;;;;2.70;2.50;;;;;;;13.65;96.01;95930.00;5033997;28;20899;-77
2021/07/01 11:26:38;;;;;;;2.83;2.58;;;;;;;13.80;96.07;95924.50;5033970;28;20423;-77
2021/07/01 11:29:08;;;;;;;2.50;2.30;;;;;;;13.87;94.80;95922.28;5034408;28;20565;-79